createdAt,value
2023-05-23T00:09:29.957Z,76.78
2023-05-23T00:11:57.506Z,76.62
2023-05-23T00:14:25.253Z,76.62
2023-05-23T00:16:53.010Z,76.61
2023-05-23T00:19:20.616Z,76.68
2023-05-23T00:21:49.557Z,76.70
2023-05-23T00:24:19.022Z,76.63
2023-05-23T00:26:48.131Z,76.66
2023-05-23T00:29:16.885Z,76.62
2023-05-23T00:31:46.420Z,76.69
2023-05-23T00:34:14.276Z,76.66
2023-05-23T00:36:41.813Z,76.57
2023-05-23T00:39:09.689Z,76.65
2023-05-23T00:41:37.865Z,76.62
2023-05-23T00:44:06.726Z,76.76
2023-05-23T00:46:34.297Z,76.69
2023-05-23T00:49:01.816Z,76.57
2023-05-23T00:51:29.733Z,76.71
2023-05-23T00:53:57.383Z,76.90
2023-05-23T00:56:26.729Z,76.84
2023-05-23T00:58:54.712Z,76.97
2023-05-23T01:01:24.267Z,76.79
2023-05-23T01:03:51.887Z,76.85
2023-05-23T01:06:19.434Z,76.75
2023-05-23T01:08:46.960Z,76.88
2023-05-23T01:11:21.893Z,76.75
2023-05-23T01:13:57.158Z,76.76
2023-05-23T01:16:33.864Z,76.75
2023-05-23T01:19:08.736Z,76.50
2023-05-23T01:21:37.672Z,76.76
2023-05-23T01:24:16.964Z,76.65
2023-05-23T01:26:51.892Z,76.66
2023-05-23T01:29:23.532Z,76.68
2023-05-23T01:31:53.587Z,76.79
2023-05-23T01:34:22.150Z,76.81
2023-05-23T01:36:51.230Z,76.73
2023-05-23T01:39:18.697Z,76.85
2023-05-23T01:41:46.199Z,76.73
2023-05-23T01:44:13.846Z,76.80
2023-05-23T01:46:44.350Z,76.69
2023-05-23T01:49:13.881Z,76.79
2023-05-23T01:51:41.910Z,76.77
2023-05-23T01:54:09.567Z,77.25
2023-05-23T01:56:37.188Z,77.03
2023-05-23T01:59:04.867Z,77.08
2023-05-23T02:01:32.443Z,77.04
2023-05-23T02:04:01.358Z,77.02
2023-05-23T02:06:28.839Z,77.09
2023-05-23T02:08:56.365Z,77.24
2023-05-23T02:11:23.859Z,77.19
2023-05-23T02:13:51.726Z,77.20
2023-05-23T02:16:19.272Z,77.04
2023-05-23T02:18:47.129Z,77.37
2023-05-23T02:21:17.648Z,77.36
2023-05-23T02:23:46.618Z,77.21
2023-05-23T02:26:15.314Z,77.26
2023-05-23T02:28:44.156Z,77.20
2023-05-23T02:31:13.022Z,77.17
2023-05-23T02:33:58.738Z,77.10
2023-05-23T02:49:35.381Z,76.92
2023-05-23T02:52:02.907Z,76.96
2023-05-23T02:54:31.055Z,76.68
2023-05-23T02:56:59.895Z,77.01
2023-05-23T02:59:27.358Z,76.82
2023-05-23T03:01:54.900Z,76.73
2023-05-23T03:04:22.505Z,76.81
2023-05-23T03:06:49.974Z,76.89
2023-05-23T03:09:17.892Z,76.95
2023-05-23T03:11:45.361Z,76.87
2023-05-23T03:14:14.154Z,76.74
2023-05-23T03:16:41.623Z,76.87
2023-05-23T03:19:09.189Z,76.92
2023-05-23T03:21:36.700Z,77.00
2023-05-23T03:24:04.411Z,77.03
2023-05-23T03:26:32.381Z,76.93
2023-05-23T03:29:00.201Z,77.14
2023-05-23T03:31:29.030Z,77.16
2023-05-23T03:33:56.489Z,77.01
2023-05-23T03:36:25.927Z,77.06
2023-05-23T03:38:53.861Z,77.15
2023-05-23T03:41:21.385Z,77.12
2023-05-23T03:43:49.002Z,77.08
2023-05-23T03:46:16.562Z,77.09
2023-05-23T03:48:45.640Z,76.96
2023-05-23T03:51:13.391Z,77.16
2023-05-23T03:53:40.867Z,77.21
2023-05-23T03:56:08.366Z,77.26
2023-05-23T03:58:35.784Z,77.18
2023-05-23T04:01:03.247Z,77.28
2023-05-23T04:03:32.670Z,77.35
2023-05-23T04:06:01.759Z,77.14
2023-05-23T04:08:29.325Z,77.04
2023-05-23T04:10:56.809Z,77.02
2023-05-23T04:13:24.908Z,77.11
2023-05-23T04:15:53.179Z,76.94
2023-05-23T04:18:20.694Z,76.85
2023-05-23T04:20:48.112Z,76.85
2023-05-23T04:23:16.952Z,76.82
2023-05-23T04:25:44.538Z,76.72
2023-05-23T04:28:12.148Z,76.71
2023-05-23T04:30:40.005Z,76.62
2023-05-23T04:33:07.930Z,76.72
2023-05-23T04:35:38.930Z,76.78
2023-05-23T04:38:06.623Z,76.82
2023-05-23T04:40:35.471Z,76.76
2023-05-23T04:43:02.962Z,76.78
2023-05-23T04:45:30.430Z,77.05
2023-05-23T04:47:58.027Z,76.96
2023-05-23T04:50:25.703Z,77.07
2023-05-23T04:52:53.193Z,76.91
2023-05-23T04:55:21.468Z,76.92
2023-05-23T04:57:50.778Z,77.14
2023-05-23T05:00:18.692Z,77.11
2023-05-23T05:02:46.277Z,77.17
2023-05-23T05:05:13.810Z,77.29
2023-05-23T05:07:41.815Z,77.14
2023-05-23T05:10:16.761Z,77.29
2023-05-23T05:12:44.738Z,77.32
2023-05-23T05:15:14.100Z,77.19
2023-05-23T05:17:42.050Z,77.39
2023-05-23T05:20:10.961Z,77.38
2023-05-23T05:22:40.254Z,77.31
2023-05-23T05:25:08.480Z,77.39
2023-05-23T05:27:37.867Z,77.37
2023-05-23T05:30:06.479Z,77.15
2023-05-23T05:32:35.638Z,77.43
2023-05-23T05:35:03.547Z,77.40
2023-05-23T05:37:31.079Z,77.33
2023-05-23T05:39:59.144Z,77.45
2023-05-23T05:42:26.603Z,77.27
2023-05-23T05:44:54.046Z,77.20
2023-05-23T05:47:22.161Z,77.20
2023-05-23T05:49:51.075Z,77.21
2023-05-23T05:52:18.585Z,77.26
2023-05-23T05:54:46.069Z,77.17
2023-05-23T05:57:13.594Z,77.29
2023-05-23T05:59:41.086Z,77.20
2023-05-23T06:02:09.183Z,77.29
2023-05-23T06:04:37.066Z,77.20
2023-05-23T06:07:06.251Z,77.08
2023-05-23T06:09:33.773Z,77.18
2023-05-23T06:12:01.298Z,77.09
2023-05-23T06:14:28.824Z,77.17
2023-05-23T06:16:56.741Z,77.15
2023-05-23T06:19:24.274Z,77.28
2023-05-23T06:21:51.955Z,77.37
2023-05-23T06:24:20.754Z,77.33
2023-05-23T06:26:48.241Z,77.41
2023-05-23T06:29:15.761Z,77.30
2023-05-23T06:31:43.282Z,77.43
2023-05-23T06:34:10.833Z,77.33
2023-05-23T06:36:38.330Z,77.43
2023-05-23T06:39:05.801Z,77.29
2023-05-23T06:41:34.594Z,77.56
2023-05-23T06:44:02.103Z,77.54
2023-05-23T06:46:29.676Z,77.42
2023-05-23T06:49:10.607Z,77.44
2023-05-23T06:51:41.978Z,77.53
2023-05-23T06:54:09.501Z,77.70
2023-05-23T06:56:38.315Z,77.53
2023-05-23T06:59:05.817Z,77.46
2023-05-23T07:01:33.392Z,77.53
2023-05-23T07:04:00.865Z,77.57
2023-05-23T07:06:28.565Z,77.44
2023-05-23T07:08:56.016Z,77.40
2023-05-23T07:11:23.551Z,77.47
2023-05-23T07:13:52.404Z,77.28
2023-05-23T07:16:19.994Z,77.29
2023-05-23T07:18:47.626Z,77.22
2023-05-23T07:21:15.143Z,77.09
2023-05-23T07:23:42.621Z,77.11
2023-05-23T07:26:10.431Z,77.10
2023-05-23T07:28:38.577Z,77.17
2023-05-23T07:31:09.226Z,77.06
2023-05-23T07:33:36.803Z,77.04
2023-05-23T07:36:04.406Z,76.98
2023-05-23T07:38:31.907Z,77.01
2023-05-23T07:41:10.901Z,76.72
2023-05-23T07:43:39.771Z,77.06
2023-05-23T07:46:08.880Z,76.92
2023-05-23T07:48:36.634Z,76.95
2023-05-23T07:51:04.208Z,76.94
2023-05-23T07:53:31.732Z,77.16
2023-05-23T07:55:59.240Z,76.93
2023-05-23T07:58:26.743Z,76.96
2023-05-23T08:00:54.229Z,76.99
2023-05-23T08:03:23.051Z,77.12
2023-05-23T08:05:50.562Z,77.03
2023-05-23T08:08:18.199Z,76.96
2023-05-23T08:10:47.100Z,77.19
2023-05-23T08:13:14.837Z,77.04
2023-05-23T08:15:42.354Z,77.09
2023-05-23T08:18:09.977Z,76.85
2023-05-23T09:52:22.157Z,77.04
2023-05-23T09:54:50.989Z,76.96
2023-05-23T09:57:20.530Z,76.93
2023-05-23T09:59:53.308Z,76.93
2023-05-23T10:02:34.015Z,76.97
2023-05-23T10:05:01.975Z,77.05
2023-05-23T10:07:29.686Z,77.08
2023-05-23T10:10:04.487Z,77.08
2023-05-23T10:12:40.757Z,76.92
2023-05-23T10:15:10.042Z,76.88
2023-05-23T10:17:40.968Z,76.88
2023-05-23T10:20:12.436Z,76.89
2023-05-23T10:22:40.637Z,76.90
2023-05-23T10:25:10.447Z,77.02
2023-05-23T10:27:38.697Z,76.93
2023-05-23T10:30:07.425Z,76.95
2023-05-23T10:32:35.832Z,76.73
2023-05-23T10:35:08.905Z,76.82
2023-05-23T10:37:39.920Z,76.57
2023-05-23T10:40:22.799Z,76.50
2023-05-23T10:42:54.241Z,76.59
2023-05-23T10:45:22.479Z,76.44
2023-05-23T10:47:51.094Z,76.42
2023-05-23T10:50:32.826Z,76.41
2023-05-23T10:53:00.885Z,76.33
2023-05-23T10:55:32.366Z,76.44
2023-05-23T10:58:12.788Z,76.41
2023-05-23T11:00:40.482Z,76.38
2023-05-23T11:03:09.999Z,76.57
2023-05-23T11:05:43.483Z,76.58
2023-05-23T11:08:11.676Z,76.47
2023-05-23T11:11:00.231Z,76.36
2023-05-23T11:13:47.705Z,76.54
2023-05-23T11:16:33.737Z,76.47
2023-05-23T11:19:20.017Z,76.31
2023-05-23T11:21:48.314Z,76.41
2023-05-23T11:24:15.828Z,76.48
2023-05-23T11:26:54.077Z,76.19
2023-05-23T11:29:21.711Z,76.53
2023-05-23T11:31:49.254Z,76.40
2023-05-23T11:34:16.853Z,76.26
2023-05-23T11:36:44.398Z,76.51
2023-05-23T11:39:12.867Z,76.41
2023-05-23T11:41:40.520Z,76.46
2023-05-23T11:44:18.126Z,76.61
2023-05-23T11:46:59.682Z,76.53
2023-05-23T11:49:28.939Z,76.43
2023-05-23T11:51:56.452Z,76.39
2023-05-23T11:54:24.367Z,76.36
2023-05-23T11:56:51.925Z,76.33
2023-05-23T11:59:21.408Z,76.28
2023-05-23T12:01:48.923Z,76.30
2023-05-23T12:04:16.615Z,76.41
2023-05-23T12:06:47.323Z,76.49
2023-05-23T12:09:15.177Z,76.41
2023-05-23T12:11:43.155Z,76.13
2023-05-23T12:14:14.964Z,76.42
2023-05-23T12:16:47.021Z,76.51
2023-05-23T12:19:15.264Z,76.47
2023-05-23T12:21:43.654Z,76.38
2023-05-23T12:24:15.422Z,76.42
2023-05-23T12:26:49.922Z,76.44
2023-05-23T12:29:19.360Z,76.54
2023-05-23T12:31:50.592Z,76.44
2023-05-23T12:34:18.343Z,76.41
2023-05-23T12:36:49.377Z,76.41
2023-05-23T12:39:25.084Z,76.42
2023-05-23T12:41:52.574Z,76.50
2023-05-23T12:44:20.110Z,76.58
2023-05-23T12:46:48.281Z,76.68
2023-05-23T12:49:17.292Z,76.53
2023-05-23T12:51:44.806Z,76.59
2023-05-23T12:54:12.344Z,76.58
2023-05-23T12:56:39.893Z,76.73
2023-05-23T12:59:07.930Z,76.61
2023-05-23T13:01:35.602Z,76.75
2023-05-23T13:04:03.479Z,76.42
2023-05-23T13:06:33.404Z,76.70
2023-05-23T13:09:01.942Z,76.81
2023-05-23T13:11:30.050Z,76.72
2023-05-23T13:13:57.954Z,76.72
2023-05-23T13:16:25.503Z,76.86
2023-05-23T13:18:53.470Z,76.71
2023-05-23T13:21:21.020Z,76.59
2023-05-23T13:23:49.883Z,76.57
2023-05-23T13:26:17.354Z,76.43
2023-05-23T13:28:44.850Z,76.56
2023-05-23T13:31:12.421Z,76.61
2023-05-23T13:33:39.964Z,76.60
2023-05-23T13:36:07.830Z,76.51
2023-05-23T13:38:35.479Z,76.58
2023-05-23T13:41:04.369Z,76.46
2023-05-23T13:43:32.038Z,76.50
2023-05-23T13:46:01.178Z,76.51
2023-05-23T13:48:28.679Z,76.44
2023-05-23T13:50:56.416Z,76.48
2023-05-23T13:53:24.063Z,76.54
2023-05-23T13:55:51.545Z,76.63
2023-05-23T13:58:20.533Z,76.52
2023-05-23T14:00:48.910Z,76.60
2023-05-23T14:03:16.615Z,76.63
2023-05-23T14:05:44.342Z,76.74
2023-05-23T14:08:13.401Z,76.67
2023-05-23T14:10:41.632Z,76.70
2023-05-23T14:13:09.314Z,76.64
2023-05-23T14:15:38.801Z,76.84
2023-05-23T14:18:06.478Z,76.83
2023-05-23T14:20:35.531Z,76.77
2023-05-23T14:23:04.204Z,76.84
2023-05-23T14:25:33.021Z,76.82
2023-05-23T14:28:01.632Z,76.84
2023-05-23T14:30:30.343Z,76.68
2023-05-23T14:33:00.600Z,76.93
2023-05-23T14:35:29.961Z,76.84
2023-05-23T14:37:58.893Z,76.84
2023-05-23T14:40:27.614Z,77.02
2023-05-23T14:42:56.329Z,76.86
2023-05-23T14:45:25.104Z,76.83
2023-05-23T14:47:53.901Z,77.02
2023-05-23T14:50:24.405Z,77.01
2023-05-23T14:52:53.493Z,76.95
2023-05-23T14:55:22.341Z,76.84
2023-05-23T14:57:51.429Z,76.73
2023-05-23T15:00:20.493Z,76.64
2023-05-23T15:02:49.424Z,76.85
2023-05-23T15:05:18.173Z,76.74
2023-05-23T15:07:48.667Z,76.80
2023-05-23T15:10:17.947Z,76.64
2023-05-23T15:12:46.723Z,76.59
2023-05-23T15:15:17.155Z,76.81
2023-05-23T15:17:45.966Z,76.61
2023-05-23T15:20:14.838Z,76.84
2023-05-23T15:22:43.595Z,76.79
2023-05-23T15:25:14.039Z,76.80
2023-05-23T15:27:45.214Z,76.87
2023-05-23T15:30:14.296Z,76.79
2023-05-23T15:32:43.022Z,76.76
2023-05-23T15:35:11.832Z,76.81
2023-05-23T15:37:40.524Z,76.88
2023-05-23T15:40:09.798Z,76.95
2023-05-23T15:42:39.981Z,76.85
2023-05-23T15:45:09.269Z,76.84
2023-05-23T15:47:38.239Z,76.80
2023-05-23T15:50:07.354Z,76.96
2023-05-23T15:52:36.058Z,76.80
2023-05-23T15:55:06.074Z,76.83
2023-05-23T15:57:34.762Z,77.01
2023-05-23T16:00:05.013Z,76.84
2023-05-23T16:02:33.901Z,77.00
2023-05-23T16:05:02.582Z,76.87
2023-05-23T16:07:31.277Z,76.93
2023-05-23T16:09:59.934Z,76.77
2023-05-23T16:12:28.560Z,76.94
2023-05-23T16:14:57.360Z,76.89
2023-05-23T16:17:27.849Z,76.90
2023-05-23T16:19:56.570Z,76.94
2023-05-23T16:22:25.607Z,76.86
2023-05-23T16:24:55.524Z,76.95
2023-05-23T16:27:25.199Z,76.88
2023-05-23T16:29:53.922Z,76.87
2023-05-23T16:32:22.617Z,76.86
2023-05-23T16:34:54.602Z,76.82
2023-05-23T16:37:23.544Z,76.94
2023-05-23T16:39:52.225Z,76.84
2023-05-23T16:42:21.471Z,76.81
2023-05-23T16:44:50.306Z,76.76
2023-05-23T16:47:19.818Z,76.81
2023-05-23T16:49:48.500Z,76.80
2023-05-23T16:52:18.933Z,76.79
2023-05-23T16:54:47.629Z,76.72
2023-05-23T16:57:16.283Z,76.82
2023-05-23T16:59:45.045Z,76.76
2023-05-23T17:02:15.666Z,76.95
2023-05-23T17:04:44.260Z,76.99
2023-05-23T17:07:13.014Z,76.93
2023-05-23T17:09:43.674Z,76.93
2023-05-23T17:12:13.648Z,76.86
2023-05-23T17:14:42.366Z,76.97
2023-05-23T17:17:10.922Z,76.91
2023-05-23T17:19:39.879Z,77.11
2023-05-23T17:22:08.687Z,76.87
2023-05-23T17:24:38.477Z,76.95
2023-05-23T17:27:08.883Z,77.13
2023-05-23T17:29:37.512Z,76.97
2023-05-23T17:32:07.050Z,76.99
2023-05-23T17:34:35.785Z,76.96
2023-05-23T17:37:04.647Z,76.93
2023-05-23T17:39:33.301Z,76.96
2023-05-23T17:42:02.241Z,76.88
2023-05-23T17:44:32.692Z,76.98
2023-05-23T17:47:01.437Z,76.83
2023-05-23T17:49:30.699Z,76.81
2023-05-23T17:51:58.454Z,76.80
2023-05-23T17:54:26.520Z,76.85
2023-05-23T17:56:54.042Z,76.58
2023-05-23T17:59:21.888Z,76.66
2023-05-23T18:01:50.674Z,76.56
2023-05-23T18:04:18.273Z,76.62
2023-05-23T18:06:45.802Z,76.59
2023-05-23T18:09:13.743Z,76.58
2023-05-23T18:11:41.565Z,76.68
2023-05-23T18:14:09.091Z,76.66
2023-05-23T18:16:36.675Z,76.69
2023-05-23T18:19:06.022Z,76.70
2023-05-23T18:21:34.746Z,76.68
2023-05-23T18:24:02.747Z,76.52
2023-05-23T18:26:30.379Z,76.60
2023-05-23T18:28:57.899Z,76.58
2023-05-23T18:31:25.387Z,76.55
2023-05-23T18:33:52.927Z,76.49
2023-05-23T18:36:21.805Z,76.62
2023-05-23T18:38:49.387Z,76.63
2023-05-23T18:41:16.893Z,76.64
2023-05-23T18:43:44.624Z,76.60
2023-05-23T18:46:12.285Z,76.66
2023-05-23T18:48:40.718Z,76.69
2023-05-23T18:51:08.471Z,76.74
2023-05-23T18:53:37.333Z,76.76
2023-05-23T18:56:04.923Z,76.82
2023-05-23T18:58:32.722Z,76.83
2023-05-23T19:01:03.663Z,76.96
2023-05-23T19:03:31.958Z,76.91
2023-05-23T19:06:02.409Z,76.93
2023-05-23T19:08:30.587Z,76.85
2023-05-23T19:10:59.653Z,76.88
2023-05-23T19:13:27.151Z,76.89
2023-05-23T19:15:54.857Z,76.88
2023-05-23T19:18:22.587Z,76.91
2023-05-23T19:20:51.656Z,76.92
2023-05-23T19:23:19.286Z,77.03
2023-05-23T19:25:46.865Z,76.95
2023-05-23T19:28:16.262Z,76.93
2023-05-23T19:30:44.539Z,76.91
2023-05-23T19:33:12.147Z,76.88
2023-05-23T19:35:39.682Z,76.84
2023-05-23T19:38:07.160Z,76.74
2023-05-23T19:40:34.673Z,76.78
2023-05-23T19:43:02.201Z,76.70
2023-05-23T19:45:31.025Z,76.67
2023-05-23T19:47:58.964Z,76.75
2023-05-23T19:50:26.610Z,76.81
2023-05-23T19:52:54.115Z,76.70
2023-05-23T19:55:21.598Z,76.71
2023-05-23T19:57:49.339Z,76.72
2023-05-23T20:00:17.513Z,76.78
2023-05-23T20:02:47.333Z,76.70
2023-05-23T20:05:14.882Z,76.72
2023-05-23T20:07:42.860Z,76.76
2023-05-23T20:10:10.606Z,76.89
2023-05-23T20:12:38.137Z,76.79
2023-05-23T20:15:06.300Z,76.73
2023-05-23T20:17:33.882Z,76.85
2023-05-23T20:34:38.376Z,76.87
2023-05-23T20:40:50.276Z,76.92
2023-05-23T20:43:38.213Z,76.70
2023-05-23T20:46:44.409Z,76.85
2023-05-23T20:59:20.315Z,76.91
2023-05-23T21:02:18.591Z,77.13
2023-05-23T21:05:22.541Z,77.05
2023-05-23T21:08:17.368Z,76.95
2023-05-23T21:11:02.630Z,76.96
2023-05-23T21:13:32.026Z,76.94
2023-05-23T21:16:00.979Z,76.96
2023-05-23T21:18:28.542Z,76.95
2023-05-23T21:20:56.295Z,76.84
2023-05-23T21:23:23.804Z,76.95
2023-05-23T21:25:51.317Z,77.03
2023-05-23T21:28:18.772Z,76.99
2023-05-23T21:30:46.714Z,76.75
2023-05-23T21:33:15.937Z,76.85
2023-05-23T21:35:45.139Z,76.84
2023-05-23T21:38:12.702Z,76.87
2023-05-23T21:40:40.490Z,76.89
2023-05-23T21:43:08.212Z,76.92
2023-05-23T21:45:35.806Z,76.91
2023-05-23T21:48:03.335Z,76.86
2023-05-23T21:50:32.208Z,76.91
2023-05-23T21:52:59.758Z,76.90
2023-05-23T21:55:27.794Z,76.89
2023-05-23T21:57:55.326Z,76.99
2023-05-23T22:00:22.955Z,77.01
2023-05-23T22:02:50.851Z,77.04
2023-05-23T22:05:18.389Z,77.08
2023-05-23T22:07:47.333Z,77.06
2023-05-23T22:10:14.816Z,76.97
2023-05-23T22:12:42.277Z,77.12
2023-05-23T22:15:10.482Z,76.99
2023-05-23T22:17:38.032Z,77.08
2023-05-23T22:20:06.389Z,77.05
2023-05-23T22:22:33.937Z,77.06
2023-05-23T22:25:02.742Z,77.07
2023-05-23T22:27:30.243Z,77.09
2023-05-23T22:29:57.954Z,77.11
2023-05-23T22:32:25.596Z,77.28
2023-05-23T22:34:53.059Z,77.07
2023-05-23T22:37:20.675Z,77.19
2023-05-23T22:39:48.161Z,77.10
2023-05-23T22:42:16.983Z,77.06
2023-05-23T22:44:44.474Z,77.11
2023-05-23T22:47:13.726Z,77.03
2023-05-23T22:49:42.308Z,76.96
2023-05-23T22:52:09.868Z,77.03
2023-05-23T22:54:37.361Z,76.96
2023-05-23T22:57:05.200Z,76.89
2023-05-23T22:59:34.223Z,76.83
2023-05-23T23:02:01.715Z,76.93
2023-05-23T23:04:31.001Z,76.88
2023-05-23T23:06:59.228Z,76.85
2023-05-23T23:09:26.951Z,76.88
2023-05-23T23:11:54.462Z,76.86
2023-05-23T23:14:22.286Z,76.93
2023-05-23T23:16:51.119Z,77.06
2023-05-23T23:19:18.764Z,77.08
2023-05-23T23:21:46.298Z,76.98
2023-05-23T23:24:13.770Z,77.10
2023-05-23T23:26:41.228Z,77.08
2023-05-23T23:29:08.748Z,76.95
2023-05-23T23:31:36.332Z,77.05
2023-05-23T23:34:05.217Z,77.05
2023-05-23T23:36:32.753Z,77.03
2023-05-23T23:39:00.221Z,76.97
2023-05-23T23:41:27.849Z,77.05
2023-05-23T23:43:55.323Z,77.03
2023-05-23T23:46:22.820Z,77.04
2023-05-23T23:48:50.525Z,77.05
2023-05-23T23:51:19.461Z,76.91
2023-05-23T23:53:48.688Z,77.12
2023-05-23T23:56:17.286Z,77.37
2023-05-23T23:58:44.753Z,77.09
